Time;durP1;ratioP1;P1;durP2;ratioP2;P2;SDS_P1;SDS_P2;PMS_P1;PMS_P2;Temp;Humidity;BMP_temperature;BMP_pressure;BME280_temperature;BME280_humidity;BME280_pressure;Samples;Min_cycle;Max_cycle;Signal;HPM_P1;HPM_P2
2022/10/21 00:01:28;;;;;;;18.67;10.27;;;;;;;12.86;100.00;100438.56;4985718;28;20230;-84
2022/10/21 00:03:54;;;;;;;17.20;11.20;;;;;;;12.87;100.00;100442.94;4996408;28;20721;-81
2022/10/21 00:06:21;;;;;;;14.53;10.20;;;;;;;12.85;100.00;100440.41;4988598;28;20210;-86
2022/10/21 00:08:49;;;;;;;15.43;11.23;;;;;;;12.83;100.00;100441.47;4991021;28;20232;-85
2022/10/21 00:11:15;;;;;;;13.20;10.17;;;;;;;12.83;100.00;100431.63;4987862;28;20230;-84
2022/10/21 00:13:42;;;;;;;15.13;10.50;;;;;;;12.82;100.00;100429.94;4994754;28;20214;-84
2022/10/21 00:16:11;;;;;;;16.60;10.80;;;;;;;12.85;100.00;100432.38;4993047;28;20204;-84
2022/10/21 00:18:39;;;;;;;16.03;10.40;;;;;;;12.84;100.00;100421.78;4980181;28;20212;-82
2022/10/21 00:21:07;;;;;;;18.30;11.53;;;;;;;12.83;100.00;100425.44;4995611;28;20234;-84
2022/10/21 00:23:33;;;;;;;17.60;12.83;;;;;;;12.81;100.00;100422.03;4989380;28;20690;-85
2022/10/21 00:26:02;;;;;;;16.27;10.90;;;;;;;12.81;100.00;100430.03;4995859;28;20691;-84
2022/10/21 00:28:28;;;;;;;15.47;11.13;;;;;;;12.80;100.00;100418.50;4984047;28;20253;-85
2022/10/21 00:30:55;;;;;;;18.27;12.40;;;;;;;12.80;100.00;100413.16;4991106;28;20599;-85
2022/10/21 00:33:22;;;;;;;18.83;11.67;;;;;;;12.81;100.00;100406.84;4987229;28;20239;-84
2022/10/21 00:35:53;;;;;;;12.97;10.47;;;;;;;12.85;100.00;100410.13;4990893;28;20203;-84
2022/10/21 00:38:19;;;;;;;16.43;11.13;;;;;;;12.83;100.00;100404.91;4989979;28;21099;-83
2022/10/21 00:40:46;;;;;;;15.13;10.00;;;;;;;12.85;100.00;100404.78;4989993;28;20239;-86
2022/10/21 00:43:13;;;;;;;12.17;9.67;;;;;;;12.85;100.00;100412.81;4992238;28;20208;-86
2022/10/21 00:45:40;;;;;;;14.17;9.73;;;;;;;12.82;100.00;100400.53;4995832;28;20208;-85
2022/10/21 00:48:13;;;;;;;13.37;8.97;;;;;;;12.79;100.00;100408.78;4986248;28;20884;-85
2022/10/21 00:50:45;;;;;;;17.30;11.27;;;;;;;12.76;100.00;100417.03;4991159;28;20237;-84
2022/10/21 00:53:15;;;;;;;13.13;9.90;;;;;;;12.73;100.00;100400.38;4990994;28;20205;-83
2022/10/21 00:55:47;;;;;;;11.70;9.27;;;;;;;12.71;100.00;100396.97;4994601;28;20207;-83
2022/10/21 00:58:17;;;;;;;13.50;9.93;;;;;;;12.70;100.00;100387.25;4983399;28;20207;-84
2022/10/21 01:00:43;;;;;;;14.40;10.40;;;;;;;12.67;100.00;100382.16;4985276;28;20714;-83
2022/10/21 01:03:10;;;;;;;13.30;10.17;;;;;;;12.65;99.97;100368.91;4990520;28;20686;-84
2022/10/21 01:05:38;;;;;;;12.57;9.77;;;;;;;12.65;99.84;100365.38;4982758;28;20215;-85
2022/10/21 01:08:05;;;;;;;11.63;9.47;;;;;;;12.64;100.00;100371.69;4997062;28;20212;-85
2022/10/21 01:10:31;;;;;;;14.00;9.87;;;;;;;12.62;99.79;100357.59;4988450;28;20607;-85
2022/10/21 01:13:10;;;;;;;12.73;9.03;;;;;;;12.62;100.00;100362.94;4992372;28;20211;-84
2022/10/21 01:15:44;;;;;;;13.70;9.53;;;;;;;12.61;99.96;100359.41;4987591;28;20210;-84
2022/10/21 01:18:17;;;;;;;10.67;9.57;;;;;;;12.61;99.56;100353.22;4991058;28;20203;-84
2022/10/21 01:21:01;;;;;;;11.40;9.07;;;;;;;12.60;99.91;100356.84;4990238;28;20227;-84
2022/10/21 01:24:03;;;;;;;11.00;9.33;;;;;;;12.60;99.61;100354.19;4984501;28;20572;-84
2022/10/21 01:27:05;;;;;;;11.63;9.33;;;;;;;12.60;99.56;100356.84;4983830;28;20214;-84
2022/10/21 01:30:06;;;;;;;12.60;9.53;;;;;;;12.63;99.26;100353.97;4986788;28;20249;-86
2022/10/21 01:32:46;;;;;;;11.40;9.07;;;;;;;12.62;99.35;100338.88;4984837;28;20206;-83
2022/10/21 01:35:19;;;;;;;12.43;9.50;;;;;;;12.61;99.35;100339.84;4989470;28;20211;-84
2022/10/21 01:37:55;;;;;;;12.67;9.27;;;;;;;12.60;99.28;100339.00;4989153;28;20254;-84
2022/10/21 01:40:26;;;;;;;15.67;10.10;;;;;;;12.59;99.58;100339.13;4992540;28;20219;-85
2022/10/21 01:42:56;;;;;;;12.30;10.30;;;;;;;12.58;99.37;100340.94;4989799;28;20207;-84
2022/10/21 01:45:31;;;;;;;10.83;8.50;;;;;;;12.59;99.25;100331.09;4986117;28;20226;-83
2022/10/21 01:48:02;;;;;;;12.27;9.23;;;;;;;12.58;99.40;100311.56;4990462;28;20726;-83
2022/10/21 01:50:34;;;;;;;11.60;8.90;;;;;;;12.57;98.99;100303.66;4986764;28;20239;-83
2022/10/21 01:53:06;;;;;;;9.83;8.37;;;;;;;12.59;98.85;100291.03;4999448;28;20203;-84
2022/10/21 01:55:34;;;;;;;13.23;9.37;;;;;;;12.58;98.92;100289.34;4992165;28;20785;-85
2022/10/21 01:58:03;;;;;;;13.97;9.57;;;;;;;12.57;99.03;100290.31;4989861;28;20213;-85
2022/10/21 02:00:32;;;;;;;12.33;9.23;;;;;;;12.56;99.01;100309.97;4990105;28;20634;-83
2022/10/21 02:03:02;;;;;;;12.07;9.43;;;;;;;12.57;98.91;100317.88;4997314;28;20565;-84
2022/10/21 02:05:31;;;;;;;10.53;8.87;;;;;;;12.58;98.94;100321.38;4992480;28;20220;-84
2022/10/21 02:07:58;;;;;;;11.97;9.63;;;;;;;12.59;98.93;100309.72;4990821;28;20230;-85
2022/10/21 02:10:29;;;;;;;12.80;9.60;;;;;;;12.60;99.20;100308.78;4989740;28;20229;-84
2022/10/21 02:13:00;;;;;;;11.23;8.47;;;;;;;12.61;98.74;100303.31;4982084;28;20199;-83
2022/10/21 02:15:29;;;;;;;11.63;9.10;;;;;;;12.64;98.64;100302.22;4993598;28;20211;-84
2022/10/21 02:18:03;;;;;;;11.27;8.40;;;;;;;12.67;98.17;100288.63;4992406;28;20651;-83
2022/10/21 02:20:33;;;;;;;10.70;8.17;;;;;;;12.70;98.29;100267.88;4989597;28;20223;-84
2022/10/21 02:23:01;;;;;;;10.27;7.90;;;;;;;12.76;98.23;100250.50;4987398;28;20214;-84
2022/10/21 02:25:32;;;;;;;15.70;9.27;;;;;;;12.85;98.32;100258.66;4989606;28;20798;-85
2022/10/21 02:27:59;;;;;;;11.43;8.10;;;;;;;12.87;98.62;100261.22;4989219;28;20204;-84
2022/10/21 02:30:27;;;;;;;12.03;8.70;;;;;;;12.90;98.61;100265.47;4988219;28;20722;-84
2022/10/21 02:33:01;;;;;;;9.13;7.77;;;;;;;12.93;98.82;100260.69;4994182;28;20596;-84
2022/10/21 02:35:34;;;;;;;12.70;8.60;;;;;;;12.95;98.37;100252.56;4995685;28;20205;-85
2022/10/21 02:38:05;;;;;;;10.43;8.87;;;;;;;12.93;97.84;100239.31;5002894;28;20211;-84
2022/10/21 02:40:34;;;;;;;9.90;8.30;;;;;;;12.90;97.40;100241.41;4989497;28;20231;-84
2022/10/21 02:43:05;;;;;;;9.50;8.50;;;;;;;12.85;97.11;100249.78;4986996;28;20690;-84
2022/10/21 02:45:34;;;;;;;9.20;8.20;;;;;;;12.81;96.96;100243.81;4988577;28;20215;-84
2022/10/21 02:48:00;;;;;;;11.03;8.30;;;;;;;12.81;96.81;100243.81;4988643;28;20722;-85
2022/10/21 02:50:26;;;;;;;11.83;8.70;;;;;;;12.80;97.42;100241.28;4996466;28;20599;-84
2022/10/21 02:52:54;;;;;;;10.37;8.57;;;;;;;12.82;97.64;100248.19;4997615;28;20217;-84
2022/10/21 02:55:21;;;;;;;10.10;8.00;;;;;;;12.90;97.94;100255.59;4998550;28;20211;-84
2022/10/21 02:57:47;;;;;;;10.73;8.70;;;;;;;12.94;98.48;100235.69;5000268;28;20214;-84
2022/10/21 03:00:15;;;;;;;10.50;8.67;;;;;;;12.99;98.36;100236.16;4988674;28;20782;-82
2022/10/21 03:02:41;;;;;;;13.07;8.90;;;;;;;13.02;98.22;100232.41;4992404;28;20579;-84
2022/10/21 03:05:09;;;;;;;10.83;8.40;;;;;;;13.04;98.50;100234.00;4991214;28;20203;-85
2022/10/21 03:07:36;;;;;;;12.13;8.70;;;;;;;13.07;98.23;100230.22;4990205;28;20208;-84
2022/10/21 03:10:04;;;;;;;14.40;9.30;;;;;;;13.08;98.41;100235.41;4992797;28;20220;-84
2022/10/21 03:12:31;;;;;;;10.90;8.80;;;;;;;13.09;98.49;100233.59;4991428;28;20227;-83
2022/10/21 03:14:57;;;;;;;11.63;9.03;;;;;;;13.09;98.41;100234.44;4994828;28;20203;-84
2022/10/21 03:17:24;;;;;;;10.63;8.47;;;;;;;13.14;98.69;100226.91;4990401;28;20223;-84
2022/10/21 03:19:50;;;;;;;11.30;8.57;;;;;;;13.14;98.59;100229.59;4984719;28;20196;-84
2022/10/21 03:22:16;;;;;;;11.47;8.63;;;;;;;13.15;98.82;100222.44;4984220;28;20230;-85
2022/10/21 03:24:43;;;;;;;11.13;8.17;;;;;;;13.14;98.90;100213.53;4987864;28;20215;-83
2022/10/21 03:27:11;;;;;;;11.03;9.20;;;;;;;13.16;98.83;100218.81;5003142;28;20215;-84
2022/10/21 03:29:37;;;;;;;14.30;9.10;;;;;;;13.15;98.97;100217.94;5003944;28;20227;-84
2022/10/21 03:32:04;;;;;;;12.33;8.87;;;;;;;13.17;98.80;100209.81;4999803;28;20230;-84
2022/10/21 03:34:30;;;;;;;13.80;9.07;;;;;;;13.17;99.09;100205.31;4987894;28;20215;-83
2022/10/21 03:36:57;;;;;;;11.27;8.87;;;;;;;13.20;98.93;100199.72;4990840;28;20211;-84
2022/10/21 03:39:23;;;;;;;10.97;8.73;;;;;;;13.24;99.11;100199.47;4989145;28;20198;-83
2022/10/21 03:41:49;;;;;;;12.60;8.77;;;;;;;13.24;98.85;100194.13;4989816;28;20235;-84
2022/10/21 03:44:17;;;;;;;9.80;8.73;;;;;;;13.24;98.72;100191.44;4992236;28;20206;-83
2022/10/21 03:46:44;;;;;;;11.83;8.50;;;;;;;13.24;98.71;100183.44;4985118;28;20196;-85
2022/10/21 03:49:10;;;;;;;12.87;8.53;;;;;;;13.23;99.05;100187.06;4992788;28;20236;-83
2022/10/21 03:51:37;;;;;;;11.53;8.13;;;;;;;13.25;99.38;100196.69;4988510;28;20243;-84
2022/10/21 03:54:03;;;;;;;12.23;8.10;;;;;;;13.27;99.18;100199.19;4991822;28;20222;-82
2022/10/21 03:56:30;;;;;;;9.77;8.17;;;;;;;13.28;99.08;100206.25;4982760;28;20648;-83
2022/10/21 03:58:56;;;;;;;10.47;8.33;;;;;;;13.28;98.75;100206.25;4993822;28;20598;-82
2022/10/21 04:01:24;;;;;;;10.73;8.80;;;;;;;13.28;98.85;100223.16;4991183;28;20708;-84
2022/10/21 04:03:50;;;;;;;11.10;8.20;;;;;;;13.28;98.98;100212.44;4995135;28;20214;-84
2022/10/21 04:06:17;;;;;;;9.13;7.63;;;;;;;13.28;99.00;100200.91;4990813;28;20303;-83
2022/10/21 04:08:43;;;;;;;9.67;7.67;;;;;;;13.29;98.72;100194.56;4988836;28;20215;-84
2022/10/21 04:11:10;;;;;;;9.00;6.90;;;;;;;13.29;98.52;100181.22;4990094;28;20227;-84
2022/10/21 04:13:36;;;;;;;7.77;6.90;;;;;;;13.32;98.81;100183.63;4985976;28;20214;-84
2022/10/21 04:16:05;;;;;;;8.90;6.73;;;;;;;13.34;99.09;100173.66;4991479;28;20207;-84
2022/10/21 04:18:33;;;;;;;10.63;7.33;;;;;;;13.37;99.13;100171.59;4991191;28;20211;-84
2022/10/21 04:20:59;;;;;;;8.13;7.30;;;;;;;13.38;99.66;100165.28;4990964;28;20250;-84
2022/10/21 04:23:26;;;;;;;7.93;6.87;;;;;;;13.41;99.07;100165.03;4991139;28;20219;-83
2022/10/21 04:25:52;;;;;;;8.33;7.07;;;;;;;13.45;99.56;100170.94;4991127;28;20214;-82
2022/10/21 04:28:19;;;;;;;10.47;7.43;;;;;;;13.45;99.62;100176.28;4992333;28;20215;-84
2022/10/21 04:30:45;;;;;;;9.67;7.60;;;;;;;13.43;99.04;100181.78;4994350;28;20242;-83
2022/10/21 04:33:12;;;;;;;9.83;8.27;;;;;;;13.43;99.23;100191.66;4994938;28;20212;-85
2022/10/21 04:35:40;;;;;;;8.67;7.87;;;;;;;13.41;99.12;100188.25;4989655;28;20211;-85
2022/10/21 04:38:06;;;;;;;9.30;8.10;;;;;;;13.40;98.72;100178.50;4986516;28;20211;-83
2022/10/21 04:40:33;;;;;;;11.07;8.70;;;;;;;13.37;98.92;100178.75;4994483;28;20238;-84
2022/10/21 04:42:59;;;;;;;10.87;8.40;;;;;;;13.34;98.56;100171.84;4994156;28;20661;-84
2022/10/21 04:45:26;;;;;;;11.23;7.57;;;;;;;13.31;98.40;100172.09;4995062;28;20216;-85
2022/10/21 04:47:52;;;;;;;8.90;8.10;;;;;;;13.28;98.59;100164.31;4995582;28;20673;-84
2022/10/21 04:50:19;;;;;;;9.60;8.57;;;;;;;13.24;98.35;100164.72;4985240;28;20714;-84
2022/10/21 04:52:46;;;;;;;9.47;8.13;;;;;;;13.22;98.59;100159.50;4985285;28;20219;-84
2022/10/21 04:55:13;;;;;;;11.83;8.37;;;;;;;13.20;98.73;100156.09;4996102;28;20214;-84
2022/10/21 04:57:40;;;;;;;12.17;8.93;;;;;;;13.18;98.69;100152.69;4984205;28;20461;-84
2022/10/21 05:00:07;;;;;;;9.93;8.87;;;;;;;13.16;98.54;100149.28;4993410;28;20251;-84
2022/10/21 05:02:34;;;;;;;12.30;8.90;;;;;;;13.14;98.36;100145.84;4988087;28;20222;-84
2022/10/21 05:05:00;;;;;;;12.17;8.70;;;;;;;13.11;98.17;100146.09;4991847;28;20220;-83
2022/10/21 05:07:26;;;;;;;11.47;9.20;;;;;;;13.08;98.50;100155.22;4991159;28;20219;-83
2022/10/21 05:09:54;;;;;;;10.37;8.60;;;;;;;13.05;98.66;100152.81;4984930;28;20235;-84
2022/10/21 05:12:21;;;;;;;10.67;8.63;;;;;;;13.04;98.46;100148.44;4988141;28;20700;-83
2022/10/21 05:14:47;;;;;;;12.37;8.10;;;;;;;13.04;98.61;100139.56;4990974;28;20212;-83
2022/10/21 05:17:14;;;;;;;11.37;8.80;;;;;;;13.02;99.05;100126.31;4991876;28;20206;-84
2022/10/21 05:19:40;;;;;;;11.10;8.60;;;;;;;13.03;99.33;100122.69;4996368;28;20662;-84
2022/10/21 05:22:06;;;;;;;13.67;10.83;;;;;;;13.05;99.92;100120.72;4999951;28;20235;-85
2022/10/21 05:24:33;;;;;;;12.13;8.90;;;;;;;13.08;100.00;100123.13;4995280;28;20208;-84
2022/10/21 05:27:01;;;;;;;11.97;8.20;;;;;;;13.11;100.00;100109.50;4993854;28;20204;-83
2022/10/21 05:29:27;;;;;;;14.27;10.13;;;;;;;13.14;100.00;100108.41;4992957;28;20211;-84
2022/10/21 05:31:54;;;;;;;10.63;8.40;;;;;;;13.16;100.00;100110.03;4986396;28;20224;-83
2022/10/21 05:34:20;;;;;;;9.17;8.23;;;;;;;13.16;100.00;100109.19;4991359;28;20212;-83
2022/10/21 05:36:47;;;;;;;11.67;8.60;;;;;;;13.16;100.00;100120.72;4989453;28;20219;-82
2022/10/21 05:39:13;;;;;;;14.00;8.53;;;;;;;13.19;100.00;100107.09;4992563;28;20583;-83
2022/10/21 05:41:40;;;;;;;11.03;8.83;;;;;;;13.20;100.00;100108.81;4994679;28;20228;-83
2022/10/21 05:44:08;;;;;;;11.67;8.20;;;;;;;13.22;100.00;100105.16;4991234;28;20199;-83
2022/10/21 05:46:34;;;;;;;11.20;8.87;;;;;;;13.21;100.00;100117.69;4997023;28;20207;-83
2022/10/21 05:49:00;;;;;;;9.80;8.80;;;;;;;13.22;100.00;100127.41;4991617;28;20207;-83
2022/10/21 05:51:27;;;;;;;9.63;7.73;;;;;;;13.24;100.00;100128.13;4989799;28;20235;-83
2022/10/21 05:53:54;;;;;;;9.97;8.10;;;;;;;13.23;100.00;100123.75;4984295;28;20208;-84
2022/10/21 05:56:20;;;;;;;12.60;8.67;;;;;;;13.24;100.00;100116.56;4986713;28;20223;-82
2022/10/21 05:58:47;;;;;;;9.50;8.50;;;;;;;13.23;100.00;100105.03;4980971;28;20212;-84
2022/10/21 06:01:14;;;;;;;9.70;8.00;;;;;;;13.23;100.00;100118.41;4985670;28;20231;-84
2022/10/21 06:03:41;;;;;;;8.97;8.03;;;;;;;13.20;100.00;100114.16;4983713;28;20208;-83
2022/10/21 06:06:08;;;;;;;11.03;7.93;;;;;;;13.22;100.00;100131.91;4988293;28;20215;-83
2022/10/21 06:08:37;;;;;;;11.33;8.13;;;;;;;13.20;100.00;100129.34;4995912;28;20677;-83
2022/10/21 06:11:06;;;;;;;12.43;9.03;;;;;;;13.22;100.00;100122.06;4989700;28;20322;-83
2022/10/21 06:13:33;;;;;;;9.37;8.10;;;;;;;13.24;100.00;100120.09;4991082;28;20211;-82
2022/10/21 06:16:00;;;;;;;11.17;8.20;;;;;;;13.27;100.00;100121.66;4997462;28;20204;-83
2022/10/21 06:18:28;;;;;;;9.70;7.27;;;;;;;13.30;100.00;100118.72;4984017;28;20670;-83
2022/10/21 06:20:55;;;;;;;10.80;8.13;;;;;;;13.33;100.00;100116.66;4989155;28;20227;-81
2022/10/21 06:23:21;;;;;;;10.07;7.53;;;;;;;13.35;100.00;100129.91;4996328;28;20208;-84
2022/10/21 06:25:54;;;;;;;9.20;7.87;;;;;;;13.37;100.00;100130.63;4993438;28;20218;-85
2022/10/21 06:28:21;;;;;;;14.27;8.17;;;;;;;13.37;100.00;100138.66;4987427;28;20626;-85
2022/10/21 06:30:48;;;;;;;9.90;7.77;;;;;;;13.36;100.00;100140.47;5003755;28;20227;-86
2022/10/21 06:33:14;;;;;;;11.80;8.10;;;;;;;13.37;100.00;100138.66;4980897;28;20212;-84
2022/10/21 06:35:42;;;;;;;9.70;8.47;;;;;;;13.37;100.00;100138.66;4989823;28;20218;-85
2022/10/21 06:38:09;;;;;;;9.80;7.97;;;;;;;13.39;100.00;100144.72;4995020;28;20211;-84
2022/10/21 06:40:35;;;;;;;9.30;7.47;;;;;;;13.40;100.00;100149.09;4992787;28;20223;-84
2022/10/21 06:43:02;;;;;;;9.33;7.10;;;;;;;13.41;100.00;100148.13;4992642;28;20208;-83
2022/10/21 06:45:29;;;;;;;11.60;7.70;;;;;;;13.42;100.00;100149.81;4990015;28;20584;-84
2022/10/21 06:47:55;;;;;;;12.10;7.00;;;;;;;13.44;100.00;100151.38;4995665;28;20203;-84
2022/10/21 06:50:22;;;;;;;10.57;7.70;;;;;;;13.47;100.00;100160.97;4997672;28;20234;-83
2022/10/21 06:52:50;;;;;;;8.87;7.13;;;;;;;13.50;100.00;100168.75;4992759;28;20211;-84
2022/10/21 06:55:17;;;;;;;10.20;7.20;;;;;;;13.52;100.00;100159.63;4992417;28;20253;-83
2022/10/21 06:57:43;;;;;;;8.20;7.10;;;;;;;13.57;100.00;100159.25;4994413;28;20203;-83
2022/10/21 07:00:11;;;;;;;9.50;7.07;;;;;;;13.61;100.00;100167.88;4989765;28;20212;-83
2022/10/21 07:02:38;;;;;;;11.37;7.07;;;;;;;13.63;100.00;100172.09;4997273;28;20697;-83
2022/10/21 07:05:05;;;;;;;8.50;6.57;;;;;;;13.66;100.00;100177.19;4988210;28;20215;-83
2022/10/21 07:07:32;;;;;;;11.10;7.17;;;;;;;13.71;100.00;100176.81;4998832;28;20578;-83
2022/10/21 07:10:00;;;;;;;7.17;5.93;;;;;;;13.73;100.00;100186.41;4990168;28;20735;-84
2022/10/21 07:12:28;;;;;;;7.73;6.43;;;;;;;13.79;100.00;100185.06;4986605;28;20299;-84
2022/10/21 07:14:54;;;;;;;8.53;6.73;;;;;;;13.79;100.00;100183.19;4992702;28;20596;-84
2022/10/21 07:17:21;;;;;;;7.63;6.50;;;;;;;13.81;100.00;100188.44;4991123;28;20223;-83
2022/10/21 07:19:47;;;;;;;9.00;7.20;;;;;;;13.80;100.00;100174.19;4995534;28;20207;-84
2022/10/21 07:22:14;;;;;;;8.97;7.73;;;;;;;13.78;100.00;100178.84;4989907;28;20230;-84
2022/10/21 07:24:41;;;;;;;8.07;7.17;;;;;;;13.78;100.00;100180.69;4996093;28;20222;-85
2022/10/21 07:27:09;;;;;;;12.20;7.60;;;;;;;13.77;100.00;100185.19;4995983;28;20215;-82
2022/10/21 07:29:35;;;;;;;8.93;8.03;;;;;;;13.77;100.00;100185.19;4996694;28;20237;-82
2022/10/21 07:32:02;;;;;;;8.77;7.73;;;;;;;13.79;100.00;100188.56;4991325;28;20250;-83
2022/10/21 07:34:28;;;;;;;10.70;7.87;;;;;;;13.80;100.00;100181.38;4985065;28;20618;-83
2022/10/21 07:36:55;;;;;;;9.50;7.93;;;;;;;13.83;100.00;100179.28;4986090;28;20216;-84
2022/10/21 07:39:24;;;;;;;11.20;8.17;;;;;;;13.89;100.00;100167.22;4990714;28;20211;-82
2022/10/21 07:41:52;;;;;;;10.40;8.20;;;;;;;13.94;100.00;100172.19;4986802;28;20232;-82
2022/10/21 07:44:22;;;;;;;11.47;7.30;;;;;;;14.02;100.00;100185.78;4987448;28;20211;-83
2022/10/21 07:46:49;;;;;;;11.13;8.17;;;;;;;14.11;100.00;100168.94;4986928;28;20211;-83
2022/10/21 07:49:18;;;;;;;10.57;7.80;;;;;;;14.20;100.00;100168.13;4990995;28;20199;-84
2022/10/21 07:51:46;;;;;;;10.57;7.83;;;;;;;14.30;100.00;100169.06;4986929;28;20232;-85
2022/10/21 07:54:14;;;;;;;7.87;6.50;;;;;;;14.41;100.00;100166.31;4992653;28;20211;-84
2022/10/21 07:56:42;;;;;;;8.80;7.33;;;;;;;14.52;100.00;100162.69;4991011;28;20216;-84
2022/10/21 07:59:10;;;;;;;9.10;7.13;;;;;;;14.64;100.00;100163.47;4986732;28;20209;-84
2022/10/21 08:01:39;;;;;;;10.47;7.20;;;;;;;14.75;100.00;100155.31;4990175;28;20231;-84
2022/10/21 08:04:06;;;;;;;8.87;6.50;;;;;;;14.87;100.00;100170.31;4989169;28;20217;-82
2022/10/21 08:06:33;;;;;;;8.97;6.77;;;;;;;14.97;100.00;100175.72;4982549;28;20207;-84
2022/10/21 08:08:59;;;;;;;8.00;6.20;;;;;;;15.08;100.00;100171.06;4987430;28;20211;-81
2022/10/21 08:11:30;;;;;;;8.97;6.07;;;;;;;15.17;100.00;100178.31;4980594;28;20244;-84
2022/10/21 08:14:05;;;;;;;7.93;5.63;;;;;;;15.29;99.60;100171.81;4985331;28;20210;-85
2022/10/21 08:16:35;;;;;;;8.67;5.33;;;;;;;15.38;98.01;100166.63;4985031;28;20203;-85
2022/10/21 08:22:06;;;;;;;7.47;5.07;;;;;;;15.58;95.90;100163.00;4982013;28;20227;-83
2022/10/21 08:24:33;;;;;;;8.33;5.00;;;;;;;15.67;95.43;100158.63;4984880;28;20260;-83
2022/10/21 08:27:00;;;;;;;7.93;5.43;;;;;;;15.73;94.97;100164.28;4982607;28;20575;-84
2022/10/21 08:29:26;;;;;;;7.33;4.90;;;;;;;15.79;93.85;100161.00;4987839;28;20207;-84
2022/10/21 08:31:53;;;;;;;7.93;4.63;;;;;;;15.87;93.09;100153.09;4987273;28;20240;-84
2022/10/21 08:34:24;;;;;;;6.23;4.70;;;;;;;15.93;92.24;100152.53;4986636;28;20221;-83
2022/10/21 08:36:50;;;;;;;8.83;4.77;;;;;;;16.02;91.27;100152.63;4980414;28;20202;-85
2022/10/21 09:30:24;;;;;;;7.03;4.57;;;;;;;15.71;91.61;100136.72;5100841;27;20611;-69
2022/10/21 09:32:56;;;;;;;7.50;4.43;;;;;;;15.78;92.26;100132.44;5079154;28;20239;-69
2022/10/21 10:34:36;;;;;;;8.30;4.23;;;;;;;16.31;87.78;100123.84;5146674;27;20530;-71
2022/10/21 10:37:06;;;;;;;7.30;4.40;;;;;;;16.36;88.05;100120.72;5117633;27;20606;-72
2022/10/21 10:39:38;;;;;;;5.07;4.20;;;;;;;16.40;87.50;100123.00;5118736;27;20223;-72
2022/10/21 10:42:05;;;;;;;6.67;4.67;;;;;;;16.45;86.67;100120.72;5114891;27;20703;-74
2022/10/21 10:44:36;;;;;;;6.00;4.40;;;;;;;16.48;86.48;100117.69;5115281;27;20202;-72
2022/10/21 10:47:05;;;;;;;8.50;4.50;;;;;;;16.53;85.84;100118.13;5119128;27;20205;-71
2022/10/21 10:49:39;;;;;;;5.33;4.00;;;;;;;16.56;85.39;100120.50;5103742;27;20676;-72
2022/10/21 10:52:16;;;;;;;9.47;5.03;;;;;;;16.57;85.14;100130.28;5110767;27;20713;-72
2022/10/21 10:54:43;;;;;;;7.40;4.37;;;;;;;16.58;84.94;100131.13;5112817;27;20733;-72
2022/10/21 10:57:13;;;;;;;9.30;4.73;;;;;;;16.60;84.67;100126.44;5117162;27;20230;-72
2022/10/21 10:59:44;;;;;;;9.83;5.00;;;;;;;16.59;84.55;100138.19;5118406;27;20233;-71
2022/10/21 11:02:28;;;;;;;7.23;4.60;;;;;;;16.58;84.49;100131.97;5119148;27;20204;-72
2022/10/21 11:05:08;;;;;;;8.23;4.70;;;;;;;16.59;84.13;100135.50;5115330;27;20206;-71
2022/10/21 11:07:39;;;;;;;7.63;4.80;;;;;;;16.60;84.03;100132.66;5115465;27;20210;-71
2022/10/21 11:10:13;;;;;;;5.73;4.77;;;;;;;16.56;83.99;100131.25;5119914;27;20236;-71
2022/10/21 11:12:39;;;;;;;8.20;5.00;;;;;;;16.56;84.18;100142.03;5114178;27;20514;-71
2022/10/21 11:15:13;;;;;;;6.50;5.20;;;;;;;16.59;84.50;100146.25;5115705;27;20572;-71
2022/10/21 11:17:45;;;;;;;7.70;5.00;;;;;;;16.57;84.30;100146.41;5110968;27;20233;-71
2022/10/21 11:20:21;;;;;;;7.13;5.67;;;;;;;16.58;84.22;100145.41;5111669;27;20222;-71
2022/10/21 11:22:58;;;;;;;6.83;5.20;;;;;;;16.59;84.32;100143.56;5113584;27;20571;-71
2022/10/21 11:25:35;;;;;;;10.87;5.10;;;;;;;16.57;84.40;100146.41;5116730;27;20750;-71
2022/10/21 11:28:15;;;;;;;6.57;4.87;;;;;;;16.55;84.14;100140.31;5113328;27;20205;-70
2022/10/21 11:30:58;;;;;;;6.47;4.90;;;;;;;16.56;84.22;100139.34;5114494;27;20219;-71
2022/10/21 11:33:37;;;;;;;8.10;5.07;;;;;;;16.58;84.30;100141.88;5118121;27;20236;-72
2022/10/21 11:36:13;;;;;;;13.53;5.10;;;;;;;16.59;84.48;100139.03;5116449;27;20574;-71
2022/10/21 11:38:55;;;;;;;8.23;5.07;;;;;;;16.61;84.13;100131.69;5115800;27;20198;-71
2022/10/21 11:41:30;;;;;;;7.33;5.20;;;;;;;16.61;84.09;100126.31;5110344;27;20335;-69
2022/10/21 11:44:11;;;;;;;8.03;5.20;;;;;;;16.61;83.75;100126.31;5109510;27;20207;-71
2022/10/21 11:46:51;;;;;;;10.87;5.53;;;;;;;16.59;83.94;100117.53;5096237;28;20207;-71
2022/10/21 11:49:34;;;;;;;5.20;4.63;;;;;;;16.58;84.08;100121.22;5097921;27;20205;-70
2022/10/21 11:52:12;;;;;;;6.87;5.53;;;;;;;16.57;84.20;100124.91;5092936;28;20202;-70
2022/10/21 11:54:55;;;;;;;9.23;4.80;;;;;;;16.57;84.42;100116.84;5096653;28;20214;-72
2022/10/21 11:57:28;;;;;;;5.90;4.33;;;;;;;16.58;84.54;100121.22;5100764;28;20207;-72
2022/10/21 12:00:04;;;;;;;9.90;5.00;;;;;;;16.59;84.46;100120.22;5097974;28;20234;-71
2022/10/21 12:02:41;;;;;;;5.77;5.00;;;;;;;16.60;84.64;100121.06;5096666;28;20198;-71
2022/10/21 12:05:17;;;;;;;8.30;5.37;;;;;;;16.61;84.84;100120.06;5092647;28;20201;-72
2022/10/21 12:07:56;;;;;;;8.47;4.90;;;;;;;16.63;84.88;100127.03;5096370;28;20206;-72
2022/10/21 12:10:30;;;;;;;7.97;4.87;;;;;;;16.63;84.94;100123.50;5098945;28;20239;-71
2022/10/21 12:13:01;;;;;;;6.70;5.40;;;;;;;16.66;85.06;100121.34;5094852;27;20662;-71
2022/10/21 12:15:35;;;;;;;6.90;5.10;;;;;;;16.66;85.04;100110.59;5097588;27;20612;-71
2022/10/21 12:18:04;;;;;;;7.13;5.63;;;;;;;16.67;85.48;100127.56;5095996;28;20207;-72
2022/10/21 12:20:31;;;;;;;15.10;6.83;;;;;;;16.67;85.84;100127.56;5099800;28;20643;-71
2022/10/21 12:23:03;;;;;;;11.57;6.90;;;;;;;16.67;86.08;100122.19;5097977;28;20195;-72
2022/10/21 12:25:38;;;;;;;7.50;5.17;;;;;;;16.66;86.27;100121.34;5108427;27;20206;-72
2022/10/21 12:28:11;;;;;;;9.03;5.20;;;;;;;16.65;86.27;100127.75;5101034;28;20198;-72
2022/10/21 12:30:43;;;;;;;7.40;5.17;;;;;;;16.62;86.42;100122.63;5097245;28;20593;-71
2022/10/21 12:33:19;;;;;;;8.83;5.27;;;;;;;16.58;86.83;100118.53;5101523;28;20257;-71
2022/10/21 12:35:51;;;;;;;10.43;5.80;;;;;;;16.57;86.59;100121.34;5103154;27;20296;-75
2022/10/21 12:38:26;;;;;;;11.10;6.23;;;;;;;16.54;87.31;100129.72;5101959;27;20197;-71
2022/10/21 12:41:27;;;;;;;9.33;6.00;;;;;;;16.52;87.45;100124.47;5101283;27;20225;-72
2022/10/21 12:43:58;;;;;;;8.80;5.30;;;;;;;16.51;87.45;100130.84;5097429;27;20714;-73
2022/10/21 12:46:27;;;;;;;9.37;5.37;;;;;;;16.50;87.72;100131.00;5095586;27;20529;-72
2022/10/21 12:48:54;;;;;;;9.97;5.33;;;;;;;16.48;87.81;100123.09;5093736;28;20210;-72
2022/10/21 12:51:24;;;;;;;7.67;5.43;;;;;;;16.47;88.08;100131.31;5107465;27;20229;-72
2022/10/21 12:53:56;;;;;;;9.20;5.47;;;;;;;16.44;88.30;100124.41;5105377;27;20655;-75
2022/10/21 12:56:30;;;;;;;9.03;5.60;;;;;;;16.42;88.59;100131.75;5093956;27;20210;-72
2022/10/21 12:58:58;;;;;;;9.03;6.20;;;;;;;16.40;88.59;100131.06;5093336;27;20248;-71
2022/10/21 13:01:41;;;;;;;8.73;5.50;;;;;;;16.38;89.14;100132.19;5094831;27;20233;-71
2022/10/21 13:04:52;;;;;;;9.77;5.17;;;;;;;16.36;89.12;100134.16;5094963;27;20194;-75
2022/10/21 13:07:31;;;;;;;7.13;5.07;;;;;;;16.31;89.43;100132.75;5053676;28;20222;-72
2022/10/21 13:10:29;;;;;;;7.17;5.50;;;;;;;16.31;89.75;100129.22;5089607;28;20233;-73
2022/10/21 13:13:28;;;;;;;11.40;6.00;;;;;;;16.28;90.26;100129.53;5100353;28;20205;-72
2022/10/21 13:15:55;;;;;;;9.47;5.50;;;;;;;16.25;90.93;100124.47;5092659;27;20233;-72
2022/10/21 13:18:57;;;;;;;8.90;6.23;;;;;;;16.25;91.23;100125.31;5095107;27;20209;-72
2022/10/21 13:21:35;;;;;;;7.03;6.30;;;;;;;16.23;91.84;100127.28;5102933;27;20323;-71
2022/10/21 13:24:22;;;;;;;9.30;6.40;;;;;;;16.24;92.23;100122.75;5099387;27;20214;-72